Time;durP1;ratioP1;P1;durP2;ratioP2;P2;SDS_P1;SDS_P2;PMS_P1;PMS_P2;Temp;Humidity;BMP_temperature;BMP_pressure;BME280_temperature;BME280_humidity;BME280_pressure;Samples;Min_cycle;Max_cycle;Signal;HPM_P1;HPM_P2
2022/08/31 00:05:16;;;;;;;3.58;0.82;;;15.80;99.90;;;;;;5044485;28;20094;-77
2022/08/31 00:07:41;;;;;;;1.90;0.60;;;15.80;99.90;;;;;;5030300;28;20056;-73
2022/08/31 00:10:17;;;;;;;5.18;0.80;;;15.70;99.90;;;;;;5044538;28;20455;-75
2022/08/31 00:12:47;;;;;;;2.15;0.77;;;15.70;99.90;;;;;;5054759;28;20163;-75
2022/08/31 00:15:17;;;;;;;2.40;0.75;;;15.60;99.90;;;;;;5037137;28;20171;-74
2022/08/31 00:17:43;;;;;;;2.65;0.70;;;15.60;99.90;;;;;;5041642;28;20040;-74
2022/08/31 00:20:11;;;;;;;1.20;0.60;;;15.50;99.90;;;;;;5044338;28;20041;-76
2022/08/31 00:22:37;;;;;;;3.17;0.63;;;15.40;99.90;;;;;;5026962;28;20373;-76
2022/08/31 00:25:03;;;;;;;1.05;0.70;;;15.40;99.90;;;;;;5055420;28;20403;-74
2022/08/31 00:27:29;;;;;;;3.17;0.80;;;15.30;99.90;;;;;;5058930;28;20041;-78
2022/08/31 00:29:55;;;;;;;0.77;0.68;;;15.30;99.90;;;;;;5039933;28;20036;-75
2022/08/31 00:32:21;;;;;;;2.05;0.75;;;15.20;99.90;;;;;;5039434;28;20207;-78
2022/08/31 00:34:46;;;;;;;4.85;0.90;;;15.30;99.90;;;;;;5045959;28;20136;-75
2022/08/31 00:37:12;;;;;;;2.72;0.70;;;15.20;99.90;;;;;;5046421;28;20055;-77
2022/08/31 00:39:38;;;;;;;2.35;0.50;;;15.10;99.90;;;;;;5053088;28;20045;-76
2022/08/31 00:42:06;;;;;;;1.23;0.70;;;15.10;99.90;;;;;;5063770;28;20056;-77
2022/08/31 00:44:32;;;;;;;1.73;0.75;;;15.00;99.90;;;;;;5030616;28;20128;-76
2022/08/31 00:46:58;;;;;;;2.35;0.77;;;15.00;99.90;;;;;;5036157;28;20049;-74
2022/08/31 00:49:28;;;;;;;2.88;0.90;;;14.90;99.90;;;;;;5044445;28;20047;-74
2022/08/31 00:52:11;;;;;;;4.32;0.75;;;14.90;99.90;;;;;;5034368;28;20093;-76
2022/08/31 00:54:57;;;;;;;0.73;0.70;;;14.90;99.90;;;;;;5030533;28;20053;-75
2022/08/31 00:57:30;;;;;;;1.77;0.80;;;14.80;99.90;;;;;;5029048;28;20691;-77
2022/08/31 00:59:57;;;;;;;3.67;0.68;;;14.80;99.90;;;;;;5028113;28;20041;-76
2022/08/31 01:02:23;;;;;;;0.88;0.70;;;14.70;99.90;;;;;;5031897;28;20046;-75
2022/08/31 01:04:49;;;;;;;1.90;0.82;;;14.70;99.90;;;;;;5042950;28;20050;-76
2022/08/31 01:07:15;;;;;;;2.50;0.70;;;14.60;99.90;;;;;;5048101;28;20070;-76
2022/08/31 01:09:42;;;;;;;1.40;0.80;;;14.60;99.90;;;;;;5046441;28;20499;-75
2022/08/31 01:12:09;;;;;;;4.80;0.90;;;14.60;99.90;;;;;;5028587;28;20033;-75
2022/08/31 01:14:36;;;;;;;1.17;0.77;;;14.50;99.90;;;;;;5060380;28;20448;-76
2022/08/31 01:17:06;;;;;;;1.67;0.73;;;14.50;99.90;;;;;;5038474;28;20480;-74
2022/08/31 01:19:44;;;;;;;3.78;0.80;;;14.50;99.90;;;;;;5050670;28;20147;-74
2022/08/31 01:22:15;;;;;;;2.70;0.73;;;14.40;99.90;;;;;;5064479;28;20064;-75
2022/08/31 01:24:59;;;;;;;0.80;0.70;;;14.40;99.90;;;;;;5028582;28;20128;-76
2022/08/31 01:27:28;;;;;;;1.60;0.70;;;14.40;99.90;;;;;;5041762;28;20076;-75
2022/08/31 01:30:01;;;;;;;0.98;0.70;;;14.40;99.90;;;;;;5048672;28;20059;-76
2022/08/31 01:32:27;;;;;;;4.72;0.75;;;14.40;99.90;;;;;;5043230;28;20049;-75
2022/08/31 01:34:53;;;;;;;2.30;0.70;;;14.30;99.90;;;;;;5058836;28;20488;-76
2022/08/31 01:37:19;;;;;;;2.90;0.70;;;14.30;99.90;;;;;;5043296;28;20036;-75
2022/08/31 01:39:44;;;;;;;0.85;0.77;;;14.30;99.90;;;;;;5044721;28;20353;-76
2022/08/31 01:42:10;;;;;;;2.42;0.70;;;14.30;99.90;;;;;;5059364;28;20106;-76
2022/08/31 01:44:35;;;;;;;3.78;0.70;;;14.30;99.90;;;;;;5040705;28;20041;-75
2022/08/31 01:47:01;;;;;;;1.35;0.80;;;14.20;99.90;;;;;;5026478;28;20041;-77
2022/08/31 01:49:27;;;;;;;1.55;0.77;;;14.20;99.90;;;;;;5043590;28;20053;-76
2022/08/31 01:51:54;;;;;;;3.10;0.70;;;14.20;99.90;;;;;;5065203;28;20028;-76
2022/08/31 01:54:22;;;;;;;2.00;0.60;;;14.10;99.90;;;;;;5060806;28;20045;-76
2022/08/31 01:56:48;;;;;;;2.75;0.63;;;14.10;99.90;;;;;;5022123;28;20152;-74
2022/08/31 01:59:17;;;;;;;4.20;0.60;;;14.10;99.90;;;;;;5041235;28;20119;-77
2022/08/31 02:01:46;;;;;;;0.90;0.60;;;14.10;99.90;;;;;;5049861;28;20123;-76
2022/08/31 02:04:14;;;;;;;0.77;0.60;;;14.10;99.90;;;;;;5058381;28;20373;-76
2022/08/31 02:06:42;;;;;;;1.73;0.70;;;14.10;99.90;;;;;;5043115;28;20040;-78
2022/08/31 02:09:08;;;;;;;3.40;0.70;;;14.10;99.90;;;;;;5043940;28;20071;-75
2022/08/31 02:11:34;;;;;;;3.45;0.60;;;14.00;99.90;;;;;;5031985;28;20033;-74
2022/08/31 02:14:00;;;;;;;6.03;0.90;;;14.00;99.90;;;;;;5031307;28;20140;-75
2022/08/31 02:16:26;;;;;;;2.33;0.70;;;14.00;99.90;;;;;;5046484;28;20104;-75
2022/08/31 02:18:52;;;;;;;1.30;0.80;;;14.00;99.90;;;;;;5045201;28;20422;-75
2022/08/31 02:21:17;;;;;;;6.95;0.80;;;14.00;99.90;;;;;;5030980;28;20049;-76
2022/08/31 02:23:43;;;;;;;1.17;0.70;;;14.00;99.90;;;;;;5049697;28;20051;-77
2022/08/31 02:26:09;;;;;;;0.90;0.60;;;13.90;99.90;;;;;;5045509;28;20029;-75
2022/08/31 02:28:35;;;;;;;0.80;0.70;;;13.90;99.90;;;;;;5033386;28;20098;-75
2022/08/31 02:31:02;;;;;;;2.45;0.60;;;13.90;99.90;;;;;;5055755;28;20488;-74
2022/08/31 02:33:28;;;;;;;1.70;0.70;;;14.00;99.90;;;;;;5041110;28;20033;-75
2022/08/31 02:35:54;;;;;;;9.82;0.90;;;14.00;99.90;;;;;;5045975;28;20436;-76
2022/08/31 02:38:21;;;;;;;2.88;0.47;;;13.90;99.90;;;;;;5034143;28;20065;-76
2022/08/31 02:40:48;;;;;;;1.70;0.70;;;13.90;99.90;;;;;;5046679;28;20558;-75
2022/08/31 02:43:16;;;;;;;2.42;0.80;;;13.90;99.90;;;;;;5029672;28;20124;-75
2022/08/31 02:45:41;;;;;;;1.95;0.80;;;13.90;99.90;;;;;;5035640;28;20033;-75
2022/08/31 02:48:09;;;;;;;0.90;0.43;;;13.80;99.90;;;;;;5048611;28;20033;-76
2022/08/31 02:50:43;;;;;;;1.73;0.57;;;13.80;99.90;;;;;;5031946;28;20052;-76
2022/08/31 02:53:11;;;;;;;2.83;0.70;;;13.90;99.90;;;;;;5049000;28;20039;-77
2022/08/31 02:55:37;;;;;;;4.03;0.60;;;13.70;99.90;;;;;;5056045;28;20045;-76
2022/08/31 02:58:04;;;;;;;4.32;0.70;;;13.80;99.90;;;;;;5035653;28;20114;-76
2022/08/31 03:00:30;;;;;;;0.52;0.43;;;13.80;99.90;;;;;;5062853;28;20120;-76
2022/08/31 03:02:55;;;;;;;7.18;0.60;;;13.70;99.90;;;;;;5045123;28;20179;-76
2022/08/31 03:05:21;;;;;;;1.95;0.60;;;13.70;99.90;;;;;;5050330;28;20124;-76
2022/08/31 03:07:48;;;;;;;0.95;0.70;;;13.70;99.90;;;;;;5032292;28;20045;-77
2022/08/31 03:10:15;;;;;;;0.90;0.60;;;13.70;99.90;;;;;;5028880;28;20064;-76
2022/08/31 03:12:41;;;;;;;2.58;0.90;;;13.70;99.90;;;;;;5051371;28;20472;-73
2022/08/31 03:15:09;;;;;;;1.08;0.60;;;13.70;99.90;;;;;;5061163;28;20036;-76
2022/08/31 03:17:35;;;;;;;1.80;0.90;;;13.70;99.90;;;;;;5051556;28;20178;-75
2022/08/31 03:20:05;;;;;;;0.70;0.70;;;13.70;99.90;;;;;;5032713;28;20040;-75
2022/08/31 03:22:32;;;;;;;1.25;1.00;;;13.70;99.90;;;;;;5055738;28;20037;-75
2022/08/31 03:24:59;;;;;;;0.55;0.52;;;13.80;99.90;;;;;;5029248;28;20154;-77
2022/08/31 03:27:25;;;;;;;1.00;0.85;;;13.70;99.90;;;;;;5049348;28;20036;-76
2022/08/31 03:29:51;;;;;;;1.63;0.80;;;13.70;99.90;;;;;;5059349;28;20041;-76
2022/08/31 03:32:18;;;;;;;3.30;0.90;;;13.70;99.90;;;;;;5034854;28;20048;-75
2022/08/31 03:34:43;;;;;;;0.75;0.75;;;13.70;99.90;;;;;;5053458;28;20041;-75
2022/08/31 03:37:09;;;;;;;3.85;0.80;;;13.60;99.90;;;;;;5064075;28;20044;-76
2022/08/31 03:39:35;;;;;;;1.30;0.90;;;13.60;99.90;;;;;;5043808;28;20040;-75
2022/08/31 03:42:00;;;;;;;0.70;0.70;;;13.50;99.90;;;;;;5030722;28;20045;-74
2022/08/31 03:44:26;;;;;;;2.35;0.80;;;13.60;99.90;;;;;;5032753;28;20160;-74
2022/08/31 03:46:55;;;;;;;1.02;0.80;;;13.50;99.90;;;;;;5045171;28;20033;-76
2022/08/31 03:49:21;;;;;;;1.02;0.80;;;13.50;99.90;;;;;;5047249;28;20328;-75
2022/08/31 03:51:47;;;;;;;4.28;1.23;;;13.50;99.90;;;;;;5044616;28;20048;-76
2022/08/31 03:54:13;;;;;;;2.40;0.63;;;13.50;99.90;;;;;;5063925;28;20453;-74
2022/08/31 03:56:40;;;;;;;1.80;0.77;;;13.40;99.90;;;;;;5046042;28;20056;-75
2022/08/31 03:59:07;;;;;;;5.07;0.88;;;13.40;99.90;;;;;;5048573;28;20136;-75
2022/08/31 04:01:39;;;;;;;2.45;0.88;;;13.40;99.90;;;;;;5045543;28;20070;-76
2022/08/31 04:04:04;;;;;;;2.08;1.00;;;13.40;99.90;;;;;;5045857;28;20087;-76
2022/08/31 04:06:31;;;;;;;1.55;1.00;;;13.40;99.90;;;;;;5046696;28;20484;-75
2022/08/31 04:09:15;;;;;;;0.77;0.70;;;13.40;99.90;;;;;;5047940;28;20128;-75
2022/08/31 04:11:43;;;;;;;1.48;0.98;;;13.30;99.90;;;;;;5046233;28;20052;-76
2022/08/31 04:14:10;;;;;;;4.43;0.85;;;13.30;99.90;;;;;;5040997;28;20048;-76
2022/08/31 04:16:38;;;;;;;3.35;1.42;;;13.20;99.90;;;;;;5039744;28;20452;-76
2022/08/31 04:19:05;;;;;;;1.05;0.95;;;13.30;99.90;;;;;;5029258;28;20045;-75
2022/08/31 04:21:31;;;;;;;1.38;1.10;;;13.30;99.90;;;;;;5045784;28;20048;-74
2022/08/31 04:23:58;;;;;;;2.13;1.20;;;13.20;99.90;;;;;;5057381;28;20096;-77
2022/08/31 04:26:31;;;;;;;1.58;1.20;;;13.30;99.90;;;;;;5048556;28;20044;-75
2022/08/31 04:28:59;;;;;;;2.00;1.00;;;13.30;99.90;;;;;;5048364;28;20072;-74
2022/08/31 04:31:26;;;;;;;2.80;1.05;;;13.30;99.90;;;;;;5043781;28;20035;-75
2022/08/31 04:33:52;;;;;;;1.48;1.05;;;13.20;99.90;;;;;;5045564;28;20116;-76
2022/08/31 04:36:24;;;;;;;2.55;0.88;;;13.20;99.90;;;;;;5060223;28;20028;-76
2022/08/31 04:38:53;;;;;;;1.40;1.08;;;13.20;99.90;;;;;;5048941;28;20454;-75
2022/08/31 04:41:21;;;;;;;2.58;1.00;;;13.10;99.90;;;;;;5028899;28;20049;-75
2022/08/31 04:43:50;;;;;;;1.65;1.20;;;13.10;99.90;;;;;;5043761;28;20038;-74
2022/08/31 04:46:16;;;;;;;3.10;1.20;;;13.00;99.90;;;;;;5045286;28;20029;-74
2022/08/31 04:48:42;;;;;;;5.68;1.15;;;13.00;99.90;;;;;;5027995;28;20041;-75
2022/08/31 04:51:10;;;;;;;2.03;1.38;;;13.00;99.90;;;;;;5044543;28;20040;-74
2022/08/31 04:53:37;;;;;;;5.47;1.40;;;13.00;99.90;;;;;;5063315;28;20038;-76
2022/08/31 04:56:06;;;;;;;1.33;1.15;;;13.00;99.90;;;;;;5031379;28;20049;-75
2022/08/31 04:58:33;;;;;;;1.70;1.40;;;13.00;99.90;;;;;;5055690;28;20049;-75
2022/08/31 05:00:58;;;;;;;1.85;1.30;;;13.00;99.90;;;;;;5055230;28;20044;-76
2022/08/31 05:03:24;;;;;;;2.55;1.30;;;13.00;99.90;;;;;;5028199;28;20037;-75
2022/08/31 05:05:51;;;;;;;1.63;1.20;;;13.00;99.90;;;;;;5030975;28;20399;-75
2022/08/31 05:08:18;;;;;;;3.33;1.13;;;13.00;99.90;;;;;;5046475;28;20041;-73
2022/08/31 05:10:45;;;;;;;2.95;1.27;;;13.10;99.90;;;;;;5027606;28;20094;-77
2022/08/31 05:13:11;;;;;;;5.15;1.30;;;13.10;99.90;;;;;;5042803;28;20049;-74
2022/08/31 05:15:42;;;;;;;1.98;1.10;;;13.10;99.90;;;;;;5047374;28;20483;-75
2022/08/31 05:18:08;;;;;;;2.65;1.20;;;13.10;99.90;;;;;;5028446;28;20072;-75
2022/08/31 05:20:34;;;;;;;2.03;1.20;;;13.20;99.90;;;;;;5044279;28;20125;-76
2022/08/31 05:22:59;;;;;;;1.83;1.27;;;13.20;99.90;;;;;;5046605;28;20070;-74
2022/08/31 05:25:26;;;;;;;3.10;1.30;;;13.30;99.90;;;;;;5040016;28;20036;-74
2022/08/31 05:27:54;;;;;;;1.83;1.30;;;13.40;99.90;;;;;;5038360;28;20098;-74
2022/08/31 05:30:20;;;;;;;1.85;1.30;;;13.40;99.90;;;;;;5024421;28;20119;-75
2022/08/31 05:32:46;;;;;;;5.07;1.20;;;13.50;99.90;;;;;;5024933;28;20121;-76
2022/08/31 05:35:13;;;;;;;2.85;1.15;;;13.40;99.90;;;;;;5040837;28;20124;-74
2022/08/31 05:37:39;;;;;;;0.90;0.90;;;13.50;99.90;;;;;;5041978;28;20065;-73
2022/08/31 05:40:06;;;;;;;3.65;1.20;;;13.50;99.90;;;;;;5047483;28;20036;-75
2022/08/31 05:42:32;;;;;;;2.03;1.20;;;13.60;99.90;;;;;;5045933;28;20048;-74
2022/08/31 05:44:57;;;;;;;2.90;1.20;;;13.70;99.90;;;;;;5026502;28;20037;-75
2022/08/31 05:47:23;;;;;;;5.25;1.20;;;13.60;99.90;;;;;;5028216;28;20946;-73
2022/08/31 05:49:49;;;;;;;1.40;1.30;;;13.70;99.90;;;;;;5046603;28;20083;-73
2022/08/31 05:52:15;;;;;;;1.90;1.17;;;13.70;99.90;;;;;;5032960;28;20050;-75
2022/08/31 05:54:40;;;;;;;1.77;1.20;;;13.70;99.90;;;;;;5060338;28;20080;-76
2022/08/31 05:57:06;;;;;;;3.33;1.20;;;13.80;99.90;;;;;;5046377;28;20088;-75
2022/08/31 05:59:32;;;;;;;2.08;1.10;;;13.80;99.90;;;;;;5051461;28;20040;-72
2022/08/31 06:01:59;;;;;;;3.55;1.27;;;13.90;99.90;;;;;;5048474;28;20060;-74
2022/08/31 06:04:26;;;;;;;1.80;1.30;;;14.00;99.90;;;;;;5043829;28;20033;-74
2022/08/31 06:06:52;;;;;;;3.08;1.33;;;14.10;99.90;;;;;;5024993;28;20127;-74
2022/08/31 06:09:17;;;;;;;2.47;1.40;;;14.10;99.90;;;;;;5045954;28;20690;-74
2022/08/31 06:11:43;;;;;;;1.63;1.00;;;14.10;99.90;;;;;;5055399;28;20488;-73
2022/08/31 06:14:10;;;;;;;2.35;1.30;;;14.20;99.90;;;;;;5052458;28;20426;-76
2022/08/31 06:16:37;;;;;;;2.13;1.02;;;14.30;99.90;;;;;;5041060;28;20048;-73
2022/08/31 06:19:05;;;;;;;2.75;1.40;;;14.30;99.90;;;;;;5026719;28;20041;-75
2022/08/31 06:21:36;;;;;;;3.65;1.23;;;14.40;99.90;;;;;;5039929;28;20089;-74
2022/08/31 06:24:04;;;;;;;1.70;1.15;;;14.50;99.90;;;;;;5041693;28;20141;-75
2022/08/31 06:26:32;;;;;;;1.20;1.10;;;14.60;99.90;;;;;;5056219;28;20188;-74
2022/08/31 06:29:00;;;;;;;1.58;1.10;;;14.70;99.90;;;;;;5060595;28;20174;-73
2022/08/31 06:31:34;;;;;;;1.48;1.10;;;14.70;99.90;;;;;;5047803;28;20042;-75
2022/08/31 06:34:03;;;;;;;3.00;1.10;;;14.80;99.90;;;;;;5062087;28;20041;-78
2022/08/31 06:36:30;;;;;;;4.03;1.10;;;14.80;99.90;;;;;;5044791;28;20059;-75
2022/08/31 06:38:58;;;;;;;1.52;0.98;;;14.90;99.90;;;;;;5034511;28;21606;-74
2022/08/31 06:41:27;;;;;;;1.30;0.90;;;15.00;99.90;;;;;;5033400;28;20467;-75
2022/08/31 06:43:54;;;;;;;1.35;0.90;;;15.00;99.90;;;;;;5037177;28;20053;-75
2022/08/31 06:46:22;;;;;;;4.05;1.20;;;15.20;99.90;;;;;;5029528;28;20106;-74
2022/08/31 06:48:51;;;;;;;4.35;0.90;;;15.30;99.90;;;;;;5037826;28;20345;-74
2022/08/31 06:51:17;;;;;;;3.70;1.00;;;15.40;99.90;;;;;;5061531;28;20059;-74
2022/08/31 06:53:43;;;;;;;3.67;1.00;;;15.40;99.90;;;;;;5031408;28;20128;-73
2022/08/31 06:56:13;;;;;;;1.55;0.73;;;15.50;99.90;;;;;;5035793;28;20049;-74
2022/08/31 06:58:39;;;;;;;3.63;0.82;;;15.60;99.90;;;;;;5043746;28;20088;-77
2022/08/31 07:01:12;;;;;;;2.13;0.90;;;15.60;99.90;;;;;;5025755;28;20451;-76
2022/08/31 07:03:42;;;;;;;1.17;0.80;;;15.70;99.90;;;;;;5041232;28;20103;-77
2022/08/31 07:06:15;;;;;;;1.70;0.80;;;15.80;99.90;;;;;;5037993;28;20038;-75
2022/08/31 07:08:43;;;;;;;1.55;0.80;;;15.90;99.90;;;;;;5049090;28;20049;-75
2022/08/31 07:11:19;;;;;;;1.80;0.82;;;16.00;99.90;;;;;;5067664;28;20060;-74
2022/08/31 07:13:46;;;;;;;3.28;1.00;;;16.10;99.90;;;;;;5065312;28;20045;-75
2022/08/31 07:16:14;;;;;;;6.05;0.80;;;16.20;99.90;;;;;;5034101;28;20088;-75
2022/08/31 07:18:42;;;;;;;1.65;0.70;;;16.30;99.90;;;;;;5066352;28;20049;-74
2022/08/31 07:21:20;;;;;;;1.40;0.60;;;16.30;99.90;;;;;;5033430;28;20084;-75
2022/08/31 07:23:48;;;;;;;2.08;0.90;;;16.50;99.90;;;;;;5015889;28;20041;-75
2022/08/31 07:26:21;;;;;;;4.15;0.73;;;16.50;99.90;;;;;;5021455;28;20041;-74
2022/08/31 07:28:51;;;;;;;3.72;1.00;;;16.60;99.90;;;;;;5035120;28;20053;-75
2022/08/31 07:31:21;;;;;;;1.45;0.80;;;16.60;99.90;;;;;;5050096;28;20045;-75
2022/08/31 07:33:54;;;;;;;2.20;0.80;;;16.70;99.90;;;;;;5067835;28;20119;-75
2022/08/31 07:36:21;;;;;;;2.53;0.80;;;16.80;99.90;;;;;;5065763;28;20068;-75
2022/08/31 07:42:08;;;;;;;2.70;0.80;;;16.90;99.90;;;;;;5033936;28;20974;-74
2022/08/31 07:44:22;;;;;;;1.98;0.77;;;17.00;99.90;;;;;;5053928;28;20056;-74
2022/08/31 07:46:49;;;;;;;2.22;0.70;;;17.00;99.90;;;;;;5026725;28;20075;-74
2022/08/31 07:49:15;;;;;;;0.85;0.70;;;17.20;99.90;;;;;;5045581;28;20061;-75
2022/08/31 07:51:50;;;;;;;1.13;0.80;;;17.20;99.90;;;;;;5028741;28;20502;-75
2022/08/31 07:54:22;;;;;;;1.15;0.70;;;17.10;99.90;;;;;;5045960;28;20709;-75
2022/08/31 07:57:21;;;;;;;4.53;0.70;;;17.30;99.90;;;;;;5038660;28;20049;-76
2022/08/31 07:59:53;;;;;;;4.20;0.80;;;17.40;99.90;;;;;;5043271;28;20049;-75
2022/08/31 08:02:20;;;;;;;0.80;0.70;;;17.40;99.90;;;;;;5050185;28;20055;-75
2022/08/31 08:04:52;;;;;;;7.97;0.77;;;17.40;99.90;;;;;;5063791;28;20138;-76
2022/08/31 08:07:18;;;;;;;4.38;0.70;;;17.60;99.90;;;;;;5034676;28;20059;-76
2022/08/31 08:09:44;;;;;;;1.73;0.90;;;17.60;99.90;;;;;;5064166;28;20037;-76
2022/08/31 08:12:10;;;;;;;1.00;0.80;;;17.60;99.90;;;;;;5030192;28;20760;-77
2022/08/31 08:14:37;;;;;;;2.33;0.80;;;17.70;99.90;;;;;;5022703;28;20042;-79
2022/08/31 08:17:05;;;;;;;2.60;0.95;;;17.80;99.90;;;;;;5038711;28;20049;-77
2022/08/31 08:19:32;;;;;;;5.25;0.98;;;17.80;99.90;;;;;;5033120;28;20057;-78
2022/08/31 08:21:59;;;;;;;5.18;0.80;;;17.90;99.90;;;;;;5048578;28;20076;-80
2022/08/31 08:24:25;;;;;;;1.10;0.70;;;17.90;99.90;;;;;;5046253;28;20083;-78
2022/08/31 08:26:51;;;;;;;3.30;0.80;;;17.90;99.90;;;;;;5034151;28;20087;-76
2022/08/31 08:29:19;;;;;;;2.63;1.08;;;18.00;99.90;;;;;;5033848;28;20052;-78
2022/08/31 08:31:51;;;;;;;1.17;0.98;;;18.10;99.90;;;;;;5031814;28;20051;-80
2022/08/31 08:34:18;;;;;;;1.42;0.80;;;18.20;99.90;;;;;;5043618;28;20081;-75
2022/08/31 08:36:45;;;;;;;3.70;0.80;;;18.30;99.90;;;;;;5060788;28;20048;-76
2022/08/31 08:39:11;;;;;;;2.60;0.65;;;18.30;99.90;;;;;;5053313;28;20084;-75
2022/08/31 08:41:39;;;;;;;5.82;0.80;;;18.40;99.90;;;;;;5027009;28;20333;-77
2022/08/31 08:44:08;;;;;;;1.98;0.70;;;18.40;99.90;;;;;;5052722;28;20072;-77
2022/08/31 08:46:48;;;;;;;3.13;0.65;;;18.50;99.90;;;;;;5036614;28;20057;-77
2022/08/31 08:49:18;;;;;;;2.30;0.85;;;18.70;99.90;;;;;;5055636;28;20040;-76
2022/08/31 08:51:52;;;;;;;4.00;1.00;;;18.80;99.90;;;;;;5031144;28;20033;-76
2022/08/31 08:54:41;;;;;;;3.30;0.70;;;18.80;99.90;;;;;;5047907;28;20057;-76
2022/08/31 08:57:13;;;;;;;4.25;0.70;;;19.00;99.90;;;;;;5041110;28;20051;-76
2022/08/31 08:59:41;;;;;;;1.20;0.50;;;19.00;99.90;;;;;;5062519;28;20420;-75
2022/08/31 09:02:11;;;;;;;2.83;0.63;;;19.10;99.90;;;;;;5045771;28;20462;-76
2022/08/31 09:04:48;;;;;;;1.85;0.70;;;19.10;99.90;;;;;;5030553;28;20045;-74
2022/08/31 09:07:29;;;;;;;0.95;0.75;;;19.10;99.90;;;;;;5042265;28;20037;-77
2022/08/31 09:09:56;;;;;;;2.53;0.82;;;19.20;99.90;;;;;;5050735;28;20045;-77
2022/08/31 09:12:58;;;;;;;2.33;0.90;;;19.20;99.90;;;;;;5051432;28;20091;-76
2022/08/31 09:15:42;;;;;;;1.58;1.00;;;19.30;99.90;;;;;;5028486;28;20046;-76
2022/08/31 09:18:19;;;;;;;2.08;0.80;;;19.40;99.90;;;;;;5030474;28;20344;-78
2022/08/31 09:21:18;;;;;;;2.25;0.75;;;19.50;99.90;;;;;;4989575;28;20516;-77
2022/08/31 09:23:47;;;;;;;1.00;0.80;;;19.60;99.90;;;;;;5000656;28;20053;-76
2022/08/31 09:26:17;;;;;;;1.27;0.70;;;19.70;99.90;;;;;;5000141;28;20060;-76
2022/08/31 09:28:49;;;;;;;1.80;0.90;;;19.80;99.90;;;;;;5003643;28;20103;-76
2022/08/31 09:31:45;;;;;;;1.80;0.57;;;19.80;99.90;;;;;;5015565;28;20038;-76
2022/08/31 09:34:35;;;;;;;;;;;19.80;99.90;;;;;;4920992;29;20055;-76
2022/08/31 09:37:10;;;;;;;1.83;0.60;;;19.80;99.90;;;;;;4938226;29;19922;-74
2022/08/31 09:39:36;;;;;;;1.98;0.90;;;20.10;99.90;;;;;;4922696;29;20088;-74
2022/08/31 09:42:13;;;;;;;2.58;0.90;;;20.40;99.90;;;;;;4939993;29;20811;-77
2022/08/31 09:44:46;;;;;;;2.25;0.63;;;20.30;99.90;;;;;;4914356;28;20090;-76
2022/08/31 09:47:50;;;;;;;1.73;0.75;;;20.60;99.90;;;;;;4914951;29;20321;-76
2022/08/31 09:50:34;;;;;;;3.80;0.70;;;20.80;99.90;;;;;;4873877;29;20054;-76
2022/08/31 09:56:19;;;;;;;0.90;0.50;;;21.10;99.90;;;;;;4918002;29;20149;-75
2022/08/31 09:58:52;;;;;;;1.73;0.80;;;21.10;99.90;;;;;;4945660;29;20055;-76
2022/08/31 10:01:38;;;;;;;1.50;0.60;;;21.40;99.90;;;;;;4914310;29;20503;-76
2022/08/31 10:04:14;;;;;;;0.88;0.70;;;21.40;99.90;;;;;;4902632;29;20075;-75
2022/08/31 10:06:57;;;;;;;1.20;0.90;;;21.70;99.90;;;;;;4904242;29;20437;-77
2022/08/31 10:09:45;;;;;;;1.55;0.68;;;21.50;99.90;;;;;;4914432;28;20055;-76
2022/08/31 10:12:20;;;;;;;3.08;0.57;;;21.40;99.90;;;;;;4970442;28;20522;-76
2022/08/31 10:14:53;;;;;;;6.57;0.70;;;21.80;99.50;;;;;;4986157;28;21533;-76
2022/08/31 10:17:31;;;;;;;2.17;0.82;;;21.80;99.40;;;;;;4975054;28;20047;-76
2022/08/31 10:20:17;;;;;;;1.45;0.70;;;22.00;99.30;;;;;;5008180;28;20042;-76
2022/08/31 10:22:49;;;;;;;4.32;0.50;;;22.20;99.30;;;;;;4973841;28;20052;-75
2022/08/31 10:25:25;;;;;;;1.05;0.55;;;22.50;98.40;;;;;;4997404;28;20600;-76
2022/08/31 10:27:59;;;;;;;2.78;0.70;;;22.30;98.40;;;;;;5052477;28;20084;-75
2022/08/31 10:30:39;;;;;;;1.30;0.60;;;22.20;98.20;;;;;;5033500;28;20041;-75
2022/08/31 10:33:17;;;;;;;0.93;0.65;;;22.20;98.70;;;;;;5050619;28;20037;-76
2022/08/31 10:35:53;;;;;;;1.27;0.80;;;22.20;98.60;;;;;;5029711;28;20048;-76
2022/08/31 10:38:36;;;;;;;1.92;0.77;;;21.80;98.80;;;;;;5044162;28;20068;-76
2022/08/31 10:41:34;;;;;;;0.80;0.70;;;21.90;99.20;;;;;;5032129;28;20060;-75
2022/08/31 10:44:02;;;;;;;3.20;0.80;;;22.40;99.20;;;;;;5041915;28;20476;-73
2022/08/31 10:46:33;;;;;;;1.90;0.70;;;22.40;98.70;;;;;;5027524;28;20057;-76
2022/08/31 10:49:02;;;;;;;1.05;0.50;;;22.70;98.30;;;;;;5035752;28;20051;-75
2022/08/31 10:52:07;;;;;;;3.55;0.70;;;22.60;97.50;;;;;;5038018;28;20109;-76
2022/08/31 10:55:27;;;;;;;1.17;0.68;;;22.80;97.00;;;;;;5060103;28;20088;-75
2022/08/31 10:58:00;;;;;;;3.25;0.60;;;23.50;96.20;;;;;;5011476;28;20038;-75
2022/08/31 11:00:44;;;;;;;0.73;0.50;;;23.90;96.00;;;;;;5012785;28;20084;-75
2022/08/31 11:03:33;;;;;;;1.13;0.50;;;24.00;95.70;;;;;;4995395;28;20057;-76
2022/08/31 11:06:24;;;;;;;1.73;0.60;;;24.30;95.50;;;;;;4996256;28;20500;-75
2022/08/31 11:09:14;;;;;;;1.42;0.60;;;24.60;94.90;;;;;;4985732;28;20142;-75
2022/08/31 11:11:42;;;;;;;2.53;0.60;;;24.80;94.10;;;;;;4940445;28;20618;-76
2022/08/31 11:14:43;;;;;;;6.47;0.60;;;24.90;93.30;;;;;;4960082;28;20046;-74
2022/08/31 11:17:24;;;;;;;2.70;0.88;;;24.50;93.60;;;;;;4973536;28;20046;-75
2022/08/31 11:19:55;;;;;;;2.60;0.68;;;25.00;93.40;;;;;;4985871;28;20042;-75
2022/08/31 11:22:29;;;;;;;3.92;0.70;;;24.90;93.80;;;;;;4969316;28;20159;-75
2022/08/31 11:25:14;;;;;;;6.00;0.70;;;24.60;93.60;;;;;;4975338;28;20531;-75
2022/08/31 11:27:59;;;;;;;3.17;0.60;;;24.20;93.80;;;;;;4972821;28;20545;-76
2022/08/31 11:30:30;;;;;;;1.27;0.50;;;23.90;94.00;;;;;;4972965;28;20050;-75
2022/08/31 11:33:06;;;;;;;2.95;0.52;;;23.80;94.20;;;;;;4973840;28;20076;-76
2022/08/31 11:35:48;;;;;;;1.88;0.50;;;23.80;93.80;;;;;;4972278;28;20050;-74
2022/08/31 11:38:41;;;;;;;3.80;0.55;;;24.10;93.50;;;;;;4987604;28;20046;-77
2022/08/31 11:41:10;;;;;;;3.00;0.55;;;24.10;93.40;;;;;;4984947;28;20050;-76
2022/08/31 11:43:44;;;;;;;1.90;0.50;;;24.10;93.20;;;;;;4951282;28;20125;-76
2022/08/31 11:46:24;;;;;;;1.52;0.38;;;24.10;92.80;;;;;;5027334;28;20041;-77
2022/08/31 11:48:50;;;;;;;1.30;0.50;;;24.30;93.30;;;;;;5033873;28;20081;-76
2022/08/31 11:51:35;;;;;;;3.70;0.60;;;24.60;92.50;;;;;;5030110;28;20118;-77
2022/08/31 11:54:08;;;;;;;;;;;24.80;91.60;;;;;;5031346;28;20047;-75
2022/08/31 11:56:37;;;;;;;0.80;0.50;;;24.80;91.70;;;;;;5049735;28;20291;-76
2022/08/31 11:59:21;;;;;;;1.85;0.50;;;25.10;92.10;;;;;;5063234;28;20045;-76
2022/08/31 12:01:47;;;;;;;1.63;0.50;;;25.00;92.00;;;;;;5043353;28;20106;-76
2022/08/31 12:04:45;;;;;;;1.80;0.65;;;25.10;92.30;;;;;;5033758;28;20053;-77
2022/08/31 12:07:34;;;;;;;3.20;0.57;;;25.60;91.20;;;;;;5021923;28;20148;-77
2022/08/31 12:10:06;;;;;;;4.45;0.45;;;25.40;91.40;;;;;;5059821;28;20522;-76
2022/08/31 12:12:50;;;;;;;2.47;0.73;;;25.70;91.00;;;;;;5067695;28;20044;-77
2022/08/31 12:15:43;;;;;;;1.58;0.63;;;25.90;90.90;;;;;;5044993;28;20621;-76
2022/08/31 12:18:31;;;;;;;3.53;0.60;;;26.00;90.20;;;;;;5036927;28;20051;-76
2022/08/31 12:24:25;;;;;;;1.65;0.77;;;26.20;90.30;;;;;;5042801;28;20136;-76
2022/08/31 12:26:56;;;;;;;;;;;25.70;90.70;;;;;;5059131;28;20045;-76
2022/08/31 12:29:32;;;;;;;3.97;0.70;;;25.40;90.70;;;;;;5052239;28;19928;-75
2022/08/31 12:32:16;;;;;;;1.48;0.70;;;25.90;89.70;;;;;;5038189;28;20144;-76
2022/08/31 12:34:54;;;;;;;4.13;0.60;;;26.30;89.10;;;;;;5033611;28;20527;-77
2022/08/31 12:37:28;;;;;;;1.73;0.55;;;26.50;88.00;;;;;;5059381;28;20045;-77
2022/08/31 12:40:15;;;;;;;4.68;0.55;;;26.40;86.80;;;;;;5049362;28;20049;-77
2022/08/31 12:42:58;;;;;;;0.75;0.50;;;26.60;86.60;;;;;;5064599;28;20550;-77
2022/08/31 12:45:57;;;;;;;0.55;0.50;;;26.00;87.70;;;;;;5048429;28;20414;-77
2022/08/31 12:48:31;;;;;;;1.35;0.60;;;25.80;88.60;;;;;;5037599;28;20051;-76
2022/08/31 12:50:57;;;;;;;1.95;0.47;;;25.60;88.90;;;;;;5052698;28;20049;-76
2022/08/31 12:53:38;;;;;;;3.13;0.60;;;25.70;89.20;;;;;;5049624;28;20051;-77
2022/08/31 12:56:14;;;;;;;0.93;0.50;;;26.30;87.30;;;;;;5041433;28;20049;-75
2022/08/31 12:59:03;;;;;;;1.55;0.60;;;26.80;86.70;;;;;;5041462;28;20142;-75
2022/08/31 13:01:30;;;;;;;1.77;0.47;;;27.10;85.40;;;;;;5045822;28;20510;-75
2022/08/31 13:04:00;;;;;;;2.97;0.38;;;27.40;84.50;;;;;;5046391;28;20067;-74
2022/08/31 13:06:30;;;;;;;4.68;0.70;;;27.40;85.40;;;;;;5044026;28;20049;-74
2022/08/31 13:08:57;;;;;;;2.70;0.50;;;27.60;83.50;;;;;;5035006;28;20696;-74
2022/08/31 13:11:24;;;;;;;3.42;0.50;;;27.50;84.20;;;;;;5024343;28;20099;-75
2022/08/31 13:13:52;;;;;;;1.67;0.60;;;27.20;84.60;;;;;;5041527;28;20111;-75
2022/08/31 13:16:18;;;;;;;2.90;0.50;;;27.50;84.70;;;;;;5041210;28;20086;-75
2022/08/31 13:18:45;;;;;;;1.92;0.50;;;27.40;82.70;;;;;;5041259;28;20048;-75
2022/08/31 13:21:18;;;;;;;3.22;0.90;;;27.70;83.90;;;;;;5051596;28;20049;-74
2022/08/31 13:23:47;;;;;;;6.40;0.90;;;27.30;87.30;;;;;;5034383;28;20057;-76